createdAt,value
2022-12-12T00:00:41.252Z,100408.66
2022-12-12T00:03:08.886Z,100406.63
2022-12-12T00:05:36.469Z,100403.63
2022-12-12T00:08:03.938Z,100400.28
2022-12-12T00:10:31.421Z,100396.66
2022-12-12T00:12:59.694Z,100393.31
2022-12-12T00:15:27.950Z,100400.19
2022-12-12T00:17:56.403Z,100391.41
2022-12-12T00:20:23.842Z,100400.41
2022-12-12T00:22:51.690Z,100389.06
2022-12-12T00:25:19.009Z,100397.75
2022-12-12T00:27:46.836Z,100393.22
2022-12-12T00:30:14.247Z,100390.31
2022-12-12T00:32:41.600Z,100389.75
2022-12-12T00:35:08.838Z,100388.06
2022-12-12T00:37:36.052Z,100395.66
2022-12-12T00:40:04.344Z,100393.63
2022-12-12T00:42:31.854Z,100385.84
2022-12-12T00:44:59.138Z,100394.31
2022-12-12T00:47:26.497Z,100392.25
2022-12-12T00:49:53.771Z,100387.97
2022-12-12T00:52:21.119Z,100394.88
2022-12-12T00:54:48.351Z,100395.22
2022-12-12T00:57:15.961Z,100387.28
2022-12-12T00:59:43.423Z,100394.31
2022-12-12T01:02:10.792Z,100391.91
2022-12-12T01:04:38.023Z,100397.56
2022-12-12T01:07:05.192Z,100397.28
2022-12-12T01:09:32.518Z,100395.28
2022-12-12T01:11:59.975Z,100396.66
2022-12-12T01:14:27.586Z,100400.13
2022-12-12T01:16:56.067Z,100403.63
2022-12-12T01:19:23.392Z,100403.00
2022-12-12T01:21:50.627Z,100411.72
2022-12-12T01:24:18.359Z,100406.47
2022-12-12T01:26:46.097Z,100401.69
2022-12-12T01:29:13.656Z,100402.38
2022-12-12T01:31:41.316Z,100398.22
2022-12-12T01:34:08.835Z,100394.97
2022-12-12T01:36:36.961Z,100396.72
2022-12-12T01:39:05.896Z,100401.84
2022-12-12T01:41:33.351Z,100390.78
2022-12-12T01:44:04.758Z,100395.13
2022-12-12T01:46:43.128Z,100388.38
2022-12-12T01:49:16.785Z,100391.81
2022-12-12T01:51:45.527Z,100385.78
2022-12-12T01:54:22.823Z,100396.97
2022-12-12T01:56:51.591Z,100407.44
2022-12-12T01:59:22.736Z,100414.31
2022-12-12T02:01:51.260Z,100419.38
2022-12-12T02:04:19.397Z,100418.78
2022-12-12T02:06:49.473Z,100427.38
2022-12-12T02:09:18.138Z,100422.88
2022-12-12T02:11:48.709Z,100430.72
2022-12-12T02:14:20.903Z,100438.53
2022-12-12T02:17:10.151Z,100430.06
2022-12-12T02:20:06.200Z,100444.19
2022-12-12T02:23:00.087Z,100438.81
2022-12-12T02:25:51.848Z,100443.03
2022-12-12T02:28:34.438Z,100440.69
2022-12-12T02:31:23.718Z,100447.28
2022-12-12T02:34:01.066Z,100441.75
2022-12-12T02:36:49.942Z,100446.84
2022-12-12T02:39:31.564Z,100450.25
2022-12-12T02:42:02.089Z,100444.22
2022-12-12T02:44:39.078Z,100435.66
2022-12-12T02:47:41.357Z,100434.84
2022-12-12T02:50:20.455Z,100433.03
2022-12-12T02:52:48.747Z,100436.59
2022-12-12T02:55:17.282Z,100431.38
2022-12-12T02:57:45.012Z,100427.03
2022-12-12T03:00:15.823Z,100429.56
2022-12-12T03:03:20.064Z,100431.28
2022-12-12T03:06:41.304Z,100425.69
2022-12-12T03:09:20.824Z,100424.47
2022-12-12T03:12:11.970Z,100419.41
2022-12-12T03:14:45.566Z,100421.84
2022-12-12T03:17:25.086Z,100426.44
2022-12-12T03:20:18.116Z,100418.59
2022-12-12T03:23:23.806Z,100429.47
2022-12-12T03:26:00.787Z,100429.00
2022-12-12T03:28:40.510Z,100427.78
2022-12-12T03:31:12.077Z,100431.09
2022-12-12T03:33:53.304Z,100434.44
2022-12-12T03:36:26.915Z,100429.38
2022-12-12T03:38:59.824Z,100419.00
2022-12-12T03:41:42.129Z,100414.25
2022-12-12T03:44:22.492Z,100420.88
2022-12-12T03:46:57.493Z,100424.94
2022-12-12T03:49:31.927Z,100424.91
2022-12-12T03:52:07.047Z,100424.94
2022-12-12T03:54:40.882Z,100425.94
2022-12-12T03:57:24.250Z,100432.78
2022-12-12T04:00:06.769Z,100427.09
2022-12-12T04:02:51.971Z,100436.59
2022-12-12T04:05:28.638Z,100431.97
2022-12-12T04:08:13.202Z,100427.53
2022-12-12T04:11:12.342Z,100420.38
2022-12-12T04:13:48.994Z,100423.66
2022-12-12T04:16:23.607Z,100426.84
2022-12-12T04:19:01.898Z,100419.38
2022-12-12T04:22:00.202Z,100425.25
2022-12-12T04:24:29.262Z,100422.97
2022-12-12T04:27:31.068Z,100422.88
2022-12-12T04:30:07.339Z,100424.06
2022-12-12T04:32:34.934Z,100407.03
2022-12-12T04:35:13.100Z,100409.19
2022-12-12T04:37:48.185Z,100411.13
2022-12-12T04:40:23.290Z,100414.25
2022-12-12T04:43:02.907Z,100412.34
2022-12-12T04:45:38.518Z,100421.03
2022-12-12T04:48:09.526Z,100432.84
2022-12-12T04:50:38.665Z,100429.03
2022-12-12T04:53:18.159Z,100435.88
2022-12-12T04:55:56.116Z,100448.50
2022-12-12T04:58:24.234Z,100453.34
2022-12-12T05:01:28.758Z,100442.69
2022-12-12T05:04:06.414Z,100434.81
2022-12-12T05:06:42.481Z,100430.38
2022-12-12T05:09:11.876Z,100425.13
2022-12-12T05:11:39.621Z,100420.75
2022-12-12T05:14:09.599Z,100420.19
2022-12-12T05:16:52.047Z,100408.69
2022-12-12T05:19:19.545Z,100396.63
2022-12-12T05:21:46.987Z,100407.97
2022-12-12T05:24:14.366Z,100406.88
2022-12-12T05:26:41.926Z,100400.03
2022-12-12T05:29:09.488Z,100400.44
2022-12-12T05:31:36.833Z,100393.66
2022-12-12T05:34:04.837Z,100395.75
2022-12-12T05:36:32.542Z,100411.75
2022-12-12T05:39:00.024Z,100416.13
2022-12-12T05:41:27.644Z,100420.03
2022-12-12T05:43:55.292Z,100431.09
2022-12-12T05:46:22.644Z,100432.84
2022-12-12T05:48:50.906Z,100434.16
2022-12-12T05:51:19.340Z,100436.41
2022-12-12T05:53:47.530Z,100438.22
2022-12-12T05:56:15.007Z,100450.28
2022-12-12T05:58:42.911Z,100447.75
2022-12-12T06:01:10.846Z,100437.13
2022-12-12T06:03:38.342Z,100426.66
2022-12-12T06:06:05.748Z,100426.53
2022-12-12T06:08:33.274Z,100430.94
2022-12-12T06:11:00.773Z,100433.63
2022-12-12T06:13:28.281Z,100417.91
2022-12-12T06:15:55.683Z,100407.75
2022-12-12T06:18:23.262Z,100414.28
2022-12-12T06:20:50.542Z,100410.84
2022-12-12T06:23:17.827Z,100407.97
2022-12-12T06:25:45.103Z,100405.19
2022-12-12T06:28:12.502Z,100410.19
2022-12-12T06:30:39.932Z,100404.31
2022-12-12T06:33:07.253Z,100407.91
2022-12-12T06:35:34.828Z,100416.56
2022-12-12T06:38:02.324Z,100415.63
2022-12-12T06:40:30.138Z,100429.28
2022-12-12T06:42:57.571Z,100428.78
2022-12-12T06:45:24.931Z,100428.13
2022-12-12T06:47:52.452Z,100419.41
2022-12-12T06:50:23.668Z,100422.03
2022-12-12T06:52:51.631Z,100422.81
2022-12-12T06:55:19.056Z,100423.31
2022-12-12T06:57:46.613Z,100413.44
2022-12-12T07:00:14.188Z,100423.47
2022-12-12T07:02:41.615Z,100416.72
2022-12-12T07:05:09.022Z,100417.81
2022-12-12T07:07:36.518Z,100410.91
2022-12-12T07:10:04.407Z,100400.59
2022-12-12T07:12:31.837Z,100406.19
2022-12-12T07:14:59.154Z,100396.94
2022-12-12T07:17:26.442Z,100395.66
2022-12-12T07:19:53.585Z,100388.69
2022-12-12T07:22:20.882Z,100379.94
2022-12-12T07:24:52.629Z,100382.16
2022-12-12T07:27:21.976Z,100382.50
2022-12-12T07:29:49.545Z,100371.03
2022-12-12T07:32:16.938Z,100364.13
2022-12-12T07:34:44.147Z,100363.28
2022-12-12T07:37:11.503Z,100363.66
2022-12-12T07:39:38.688Z,100368.00
2022-12-12T07:42:06.067Z,100381.84
2022-12-12T07:44:33.376Z,100385.03
2022-12-12T07:47:00.829Z,100381.88
2022-12-12T07:49:29.645Z,100370.44
2022-12-12T07:51:57.135Z,100359.00
2022-12-12T07:54:24.759Z,100353.38
2022-12-12T07:56:52.215Z,100367.88
2022-12-12T07:59:19.687Z,100372.16
2022-12-12T08:01:47.296Z,100367.06
2022-12-12T08:04:14.606Z,100347.94
2022-12-12T08:06:42.171Z,100350.03
2022-12-12T08:09:09.587Z,100345.38
2022-12-12T08:11:38.899Z,100325.72
2022-12-12T08:14:13.131Z,100338.69
2022-12-12T08:16:41.386Z,100344.88
2022-12-12T08:19:08.885Z,100362.03
2022-12-12T08:21:36.533Z,100373.53
2022-12-12T08:24:04.205Z,100375.38
2022-12-12T08:26:32.358Z,100366.78
2022-12-12T08:29:00.092Z,100357.81
2022-12-12T08:31:28.267Z,100360.50
2022-12-12T08:33:56.211Z,100366.97
2022-12-12T08:36:32.231Z,100372.56
2022-12-12T08:39:05.167Z,100363.63
2022-12-12T08:41:34.660Z,100358.38
2022-12-12T08:44:02.133Z,100354.91
2022-12-12T08:46:29.908Z,100362.13
2022-12-12T08:48:57.359Z,100377.56
2022-12-12T08:51:25.042Z,100372.50
2022-12-12T08:53:53.474Z,100366.78
2022-12-12T08:56:23.261Z,100362.56
2022-12-12T08:58:51.074Z,100355.91
2022-12-12T09:01:22.275Z,100345.44
2022-12-12T09:03:51.564Z,100354.28
2022-12-12T09:06:19.762Z,100346.50
2022-12-12T09:08:48.160Z,100361.34
2022-12-12T09:11:17.840Z,100349.13
2022-12-12T09:13:45.562Z,100347.31
2022-12-12T09:16:13.283Z,100335.75
2022-12-12T09:18:48.105Z,100347.50
2022-12-12T09:21:17.001Z,100355.56
2022-12-12T09:23:44.683Z,100354.47
2022-12-12T09:26:12.528Z,100348.19
2022-12-12T09:28:40.424Z,100345.63
2022-12-12T09:31:09.700Z,100349.41
2022-12-12T09:33:37.464Z,100345.00
2022-12-12T09:36:07.193Z,100346.22
2022-12-12T09:38:35.195Z,100347.75
2022-12-12T09:41:09.811Z,100351.31
2022-12-12T09:44:00.307Z,100354.50
2022-12-12T09:46:37.714Z,100355.09
2022-12-12T09:49:24.789Z,100362.75
2022-12-12T09:51:54.185Z,100347.19
2022-12-12T09:54:25.650Z,100353.28
2022-12-12T09:56:59.202Z,100350.81
2022-12-12T09:59:36.175Z,100349.88
2022-12-12T10:02:34.900Z,100349.13
2022-12-12T10:05:42.787Z,100336.09
2022-12-12T10:08:10.316Z,100350.72
2022-12-12T10:10:42.622Z,100347.38
2022-12-12T10:13:19.479Z,100351.88
2022-12-12T10:15:51.771Z,100337.47
2022-12-12T10:18:27.090Z,100345.47
2022-12-12T10:20:59.451Z,100321.06
2022-12-12T10:23:51.477Z,100321.06
2022-12-12T10:26:24.230Z,100320.41
2022-12-12T10:28:56.069Z,100323.84
2022-12-12T10:31:30.260Z,100315.25
2022-12-12T10:34:13.077Z,100315.53
2022-12-12T10:37:08.915Z,100323.03
2022-12-12T10:39:42.331Z,100318.13
2022-12-12T10:42:24.616Z,100293.69
2022-12-12T10:45:23.481Z,100290.66
2022-12-12T10:47:51.244Z,100276.06
2022-12-12T10:50:39.024Z,100265.00
2022-12-12T10:53:09.008Z,100278.50
2022-12-12T10:55:57.866Z,100292.41
2022-12-12T10:58:37.774Z,100279.09
2022-12-12T11:01:44.981Z,100279.97
2022-12-12T11:04:14.604Z,100283.78
2022-12-12T11:06:56.238Z,100276.75
2022-12-12T11:09:26.772Z,100269.91
2022-12-12T11:12:16.648Z,100257.25
2022-12-12T11:14:51.434Z,100242.25
2022-12-12T11:17:28.593Z,100248.56
2022-12-12T11:19:58.844Z,100222.09
2022-12-12T11:22:27.974Z,100225.66
2022-12-12T11:24:56.146Z,100217.66
2022-12-12T11:27:32.234Z,100223.44
2022-12-12T11:30:04.286Z,100215.38
2022-12-12T11:32:44.637Z,100213.38
2022-12-12T11:35:46.996Z,100210.88
2022-12-12T11:38:25.007Z,100198.66
2022-12-12T11:41:02.068Z,100199.06
2022-12-12T11:43:37.089Z,100193.56
2022-12-12T11:46:13.684Z,100190.81
2022-12-12T11:48:59.293Z,100203.50
2022-12-12T11:51:39.426Z,100208.66
2022-12-12T11:54:45.402Z,100202.97
2022-12-12T11:57:24.305Z,100180.25
2022-12-12T12:00:13.285Z,100174.66
2022-12-12T12:03:05.467Z,100177.63
2022-12-12T12:05:46.153Z,100171.78
2022-12-12T12:08:35.703Z,100154.84
2022-12-12T12:11:09.636Z,100141.19
2022-12-12T12:13:55.361Z,100143.44
2022-12-12T12:16:59.599Z,100124.66
2022-12-12T12:19:30.058Z,100133.53
2022-12-12T12:22:39.218Z,100135.41
2022-12-12T12:25:19.634Z,100139.16
2022-12-12T12:28:06.027Z,100146.50
2022-12-12T12:30:59.585Z,100139.63
2022-12-12T12:34:12.296Z,100139.78
2022-12-12T12:36:54.630Z,100134.13
2022-12-12T12:39:52.214Z,100140.31
2022-12-12T12:42:49.797Z,100127.41
2022-12-12T12:45:27.800Z,100138.53
2022-12-12T12:48:10.227Z,100130.53
2022-12-12T12:50:47.240Z,100140.53
2022-12-12T12:53:23.391Z,100139.25
2022-12-12T12:55:58.622Z,100143.09
2022-12-12T12:58:31.022Z,100149.31
2022-12-12T13:01:39.068Z,100139.78
2022-12-12T13:04:21.339Z,100143.28
2022-12-12T13:07:04.452Z,100136.13
2022-12-12T13:09:51.372Z,100131.84
2022-12-12T13:12:32.573Z,100122.44
2022-12-12T13:15:04.878Z,100133.78
2022-12-12T13:17:35.986Z,100123.53
2022-12-12T13:20:03.798Z,100129.00
2022-12-12T13:22:45.805Z,100126.38
2022-12-12T13:26:02.766Z,100116.47
2022-12-12T13:29:04.374Z,100106.94
2022-12-12T13:31:40.838Z,100108.34
2022-12-12T13:34:16.749Z,100105.38
2022-12-12T13:36:48.553Z,100099.56
2022-12-12T13:39:31.099Z,100093.28
2022-12-12T13:42:03.671Z,100086.03
2022-12-12T13:44:44.490Z,100090.75
2022-12-12T13:47:18.021Z,100090.00
2022-12-12T13:49:53.846Z,100081.75
2022-12-12T13:52:44.777Z,100077.28
2022-12-12T13:55:12.851Z,100081.47
2022-12-12T13:58:02.766Z,100068.81
2022-12-12T14:00:37.976Z,100059.63
2022-12-12T14:03:12.608Z,100057.06
2022-12-12T14:05:43.453Z,100053.13
2022-12-12T14:08:11.001Z,100062.78
2022-12-12T14:11:03.088Z,100053.44
2022-12-12T14:13:45.336Z,100044.63
2022-12-12T14:16:30.057Z,100037.69
2022-12-12T14:19:21.015Z,100041.91
2022-12-12T14:21:48.968Z,100039.22
2022-12-12T14:24:34.938Z,100034.88
2022-12-12T14:27:04.461Z,100039.13
2022-12-12T14:29:45.727Z,100040.28
2022-12-12T14:32:13.341Z,100032.44
2022-12-12T14:34:59.436Z,100035.16
2022-12-12T14:37:36.100Z,100024.63
2022-12-12T14:40:28.298Z,100019.41
2022-12-12T14:43:21.842Z,100023.84
2022-12-12T14:45:50.240Z,100017.16
2022-12-12T14:48:33.736Z,100030.94
2022-12-12T14:51:11.949Z,100023.28
2022-12-12T14:53:39.518Z,100015.38
2022-12-12T14:56:11.113Z,99995.72
2022-12-12T14:58:46.211Z,100005.28
2022-12-12T15:01:18.151Z,99994.34
2022-12-12T15:03:50.428Z,99995.19
2022-12-12T15:06:25.839Z,99986.47
2022-12-12T15:08:54.418Z,99992.59
2022-12-12T15:11:25.448Z,99985.75
2022-12-12T15:13:58.573Z,99984.88
2022-12-12T15:16:48.562Z,99981.22
2022-12-12T15:19:23.188Z,99988.16
2022-12-12T15:21:51.073Z,99987.56
2022-12-12T15:24:26.599Z,99978.75
2022-12-12T15:26:59.065Z,99980.44
2022-12-12T15:29:29.406Z,99981.53
2022-12-12T15:32:07.125Z,99976.88
2022-12-12T15:34:36.982Z,99986.47
2022-12-12T15:37:34.528Z,99977.69
2022-12-12T15:40:13.895Z,99963.84
2022-12-12T15:42:49.378Z,99963.88
2022-12-12T15:45:26.072Z,99972.44
2022-12-12T15:47:54.844Z,99967.38
2022-12-12T15:50:27.280Z,99960.38
2022-12-12T15:53:08.232Z,99962.75
2022-12-12T15:55:36.346Z,99961.94
2022-12-12T15:58:03.904Z,99977.06
2022-12-12T16:00:38.129Z,99956.13
2022-12-12T16:03:11.627Z,99958.53
2022-12-12T16:05:40.156Z,99945.56
2022-12-12T16:08:31.749Z,99952.44
2022-12-12T16:11:02.611Z,99941.97
2022-12-12T16:13:41.323Z,99940.25
2022-12-12T16:16:35.789Z,99939.28
2022-12-12T16:19:05.246Z,99946.19
2022-12-12T16:21:34.554Z,99945.28
2022-12-12T16:24:13.376Z,99948.59
2022-12-12T16:26:41.110Z,99936.38
2022-12-12T16:29:08.576Z,99940.72
2022-12-12T16:31:35.961Z,99944.28
2022-12-12T16:34:03.608Z,99943.94
2022-12-12T16:36:31.172Z,99946.56
2022-12-12T16:38:58.566Z,99954.31
2022-12-12T16:41:25.883Z,99948.19
2022-12-12T16:43:53.192Z,99941.38
2022-12-12T16:46:23.196Z,99942.97
2022-12-12T16:48:52.879Z,99942.88
2022-12-12T16:51:27.704Z,99941.50
2022-12-12T16:53:55.617Z,99947.38
2022-12-12T16:56:23.019Z,99936.38
2022-12-12T16:58:51.013Z,99948.97
2022-12-12T17:01:19.198Z,99950.56
2022-12-12T17:03:47.094Z,99962.53
2022-12-12T17:06:14.558Z,99954.06
2022-12-12T17:08:41.905Z,99952.00
2022-12-12T17:11:11.166Z,99942.41
2022-12-12T17:13:46.438Z,99941.59
2022-12-12T17:16:14.727Z,99936.56
2022-12-12T17:18:42.202Z,99926.06
2022-12-12T17:21:09.852Z,99935.59
2022-12-12T17:23:37.130Z,99933.91
2022-12-12T17:26:05.199Z,99932.16
2022-12-12T17:28:34.145Z,99934.66
2022-12-12T17:31:02.483Z,99933.88
2022-12-12T17:33:30.414Z,99929.47
2022-12-12T17:36:04.591Z,99928.94
2022-12-12T17:38:33.143Z,99930.84
2022-12-12T17:41:09.172Z,99931.38
2022-12-12T17:43:37.658Z,99933.81
2022-12-12T17:46:08.646Z,99927.72
2022-12-12T17:48:36.333Z,99925.81
2022-12-12T17:51:06.161Z,99928.50
2022-12-12T17:53:42.324Z,99929.28
2022-12-12T17:56:15.851Z,99936.03
2022-12-12T17:58:45.978Z,99944.44
2022-12-12T18:01:16.437Z,99926.06
2022-12-12T18:03:44.726Z,99922.59
2022-12-12T18:06:13.130Z,99926.34
2022-12-12T18:08:42.147Z,99920.63
2022-12-12T18:11:13.732Z,99928.97
2022-12-12T18:13:42.054Z,99912.75
2022-12-12T18:16:13.381Z,99907.81
2022-12-12T18:18:41.253Z,99905.34
2022-12-12T18:21:59.277Z,99913.16
2022-12-12T18:24:18.845Z,99912.56
2022-12-12T18:26:47.830Z,99912.56
2022-12-12T18:29:15.364Z,99909.59
2022-12-12T18:31:42.875Z,99905.13
2022-12-12T18:34:10.635Z,99924.88
2022-12-12T18:36:38.101Z,99905.28
2022-12-12T18:39:07.143Z,99906.19
2022-12-12T18:41:36.898Z,99902.09
2022-12-12T18:44:07.268Z,99909.81
2022-12-12T18:46:41.953Z,99895.34
2022-12-12T18:49:15.130Z,99904.63
2022-12-12T18:51:44.505Z,99914.84
2022-12-12T18:54:28.964Z,99899.63
2022-12-12T18:57:00.378Z,99909.03
2022-12-12T18:59:27.869Z,99915.97
2022-12-12T19:01:55.440Z,99911.34
2022-12-12T19:04:23.958Z,99896.91
2022-12-12T19:06:53.095Z,99912.44
2022-12-12T19:09:21.709Z,99913.91
2022-12-12T19:11:50.346Z,99912.06
2022-12-12T19:14:18.005Z,99913.16
2022-12-12T19:16:46.057Z,99907.16
2022-12-12T19:19:14.528Z,99918.84
2022-12-12T19:21:42.950Z,99917.06
2022-12-12T19:24:12.566Z,99911.09
2022-12-12T19:26:42.335Z,99924.81
2022-12-12T19:29:17.634Z,99942.00
2022-12-12T19:31:45.583Z,99933.41
2022-12-12T19:34:16.215Z,99939.22
2022-12-12T19:36:44.193Z,99935.53
2022-12-12T19:39:12.857Z,99938.97
2022-12-12T19:41:40.666Z,99955.09
2022-12-12T19:44:12.798Z,99947.28
2022-12-12T19:46:42.923Z,99953.03
2022-12-12T19:49:13.844Z,99963.56
2022-12-12T19:51:42.892Z,99952.44
2022-12-12T19:54:15.140Z,99953.91
2022-12-12T19:56:51.429Z,99943.59
2022-12-12T19:59:25.103Z,99932.69
2022-12-12T20:01:52.638Z,99929.97
2022-12-12T20:04:24.012Z,99929.03
2022-12-12T20:06:51.604Z,99940.72
2022-12-12T20:09:22.352Z,99926.84
2022-12-12T20:11:50.385Z,99930.50
2022-12-12T20:14:23.487Z,99928.66
2022-12-12T20:16:55.107Z,99935.63
2022-12-12T20:19:24.425Z,99944.84
2022-12-12T20:22:02.259Z,99928.66
2022-12-12T20:24:32.434Z,99948.09
2022-12-12T20:27:00.270Z,99942.13
2022-12-12T20:29:28.055Z,99943.81
2022-12-12T20:31:55.738Z,99955.47
2022-12-12T20:34:25.020Z,99943.59
2022-12-12T20:36:55.167Z,99944.91
2022-12-12T20:39:24.947Z,99951.47
2022-12-12T20:41:53.951Z,99946.69
2022-12-12T20:44:23.394Z,99956.22
2022-12-12T20:46:51.326Z,99950.94
2022-12-12T20:49:22.420Z,99950.28
2022-12-12T20:51:58.641Z,99950.28
2022-12-12T20:54:28.470Z,99944.06
2022-12-12T20:56:57.504Z,99958.50
2022-12-12T20:59:25.865Z,99957.56
2022-12-12T21:01:53.810Z,99948.06
2022-12-12T21:04:22.132Z,99951.44
2022-12-12T21:06:51.778Z,99950.72
2022-12-12T21:09:25.080Z,99955.69
2022-12-12T21:11:55.953Z,99952.22
2022-12-12T21:14:25.246Z,99962.53
2022-12-12T21:16:53.499Z,99960.91
2022-12-12T21:19:22.092Z,99961.75
2022-12-12T21:21:50.473Z,99956.41
2022-12-12T21:24:18.517Z,99962.97
2022-12-12T21:26:46.732Z,99970.06
2022-12-12T21:29:14.355Z,99975.16
2022-12-12T21:31:49.809Z,99969.13
2022-12-12T21:34:18.482Z,99957.19
2022-12-12T21:36:45.907Z,99962.19
2022-12-12T21:39:13.504Z,99960.25
2022-12-12T21:41:44.012Z,99960.13
2022-12-12T21:44:11.872Z,99965.84
2022-12-12T21:46:42.148Z,99947.91
2022-12-12T21:49:28.431Z,99950.53
2022-12-12T21:51:59.412Z,99950.34
2022-12-12T21:54:29.236Z,99957.84
2022-12-12T21:56:57.860Z,99950.16
2022-12-12T21:59:27.046Z,99953.72
2022-12-12T22:01:59.975Z,99952.09
2022-12-12T22:04:28.201Z,99956.41
2022-12-12T22:06:57.347Z,99950.28
2022-12-12T22:09:25.201Z,99945.22
2022-12-12T22:12:04.078Z,99939.00
2022-12-12T22:14:33.366Z,99947.47
2022-12-12T22:17:03.400Z,99950.34
2022-12-12T22:19:31.327Z,99950.34
2022-12-12T22:21:58.799Z,99938.19
2022-12-12T22:24:26.473Z,99943.97
2022-12-12T22:26:54.010Z,99961.28
2022-12-12T22:29:21.632Z,99960.66
2022-12-12T22:31:52.580Z,99958.91
2022-12-12T22:34:23.700Z,99967.22
2022-12-12T22:36:52.219Z,99958.78
2022-12-12T22:39:27.690Z,99970.41
2022-12-12T22:41:55.903Z,99966.78
2022-12-12T22:44:25.197Z,99967.84
2022-12-12T22:46:54.737Z,99978.44
2022-12-12T22:49:25.875Z,99972.28
2022-12-12T22:51:57.143Z,99967.38
2022-12-12T22:54:25.907Z,99956.03
2022-12-12T22:56:53.482Z,99964.53
2022-12-12T22:59:21.290Z,99967.09
2022-12-12T23:01:48.740Z,99968.66
2022-12-12T23:04:16.155Z,99965.84
2022-12-12T23:06:44.249Z,99959.84
2022-12-12T23:09:17.167Z,99949.72
2022-12-12T23:11:45.462Z,99951.41
2022-12-12T23:14:16.259Z,99959.03
2022-12-12T23:16:44.874Z,99957.34
2022-12-12T23:19:14.828Z,99962.78
2022-12-12T23:21:42.457Z,99951.78
2022-12-12T23:24:10.384Z,99960.03
2022-12-12T23:26:38.553Z,99961.56
2022-12-12T23:29:09.208Z,99956.84
2022-12-12T23:31:38.701Z,99956.84
2022-12-12T23:34:15.951Z,99958.16
2022-12-12T23:36:44.133Z,99953.16
2022-12-12T23:39:12.934Z,99954.84
2022-12-12T23:41:41.130Z,99950.47
2022-12-12T23:44:10.063Z,99957.59
2022-12-12T23:46:37.749Z,99947.28
2022-12-12T23:49:12.724Z,99952.00
2022-12-12T23:51:51.932Z,99950.41
2022-12-12T23:54:28.119Z,99960.44
2022-12-12T23:56:56.218Z,99967.84
2022-12-12T23:59:25.727Z,99965.72
